sensor_id;sensor_type;location;lat;lon;timestamp;pressure;altitude;pressure_sealevel;temperature;humidity
84714;BME280;74938;42.658;23.248;2024-01-10T00:01:15;94973.47;;;-6.48;74.81
84714;BME280;74938;42.658;23.248;2024-01-10T00:03:41;94992.84;;;-6.50;74.96
84714;BME280;74938;42.658;23.248;2024-01-10T00:06:06;94984.88;;;-6.41;74.12
84714;BME280;74938;42.658;23.248;2024-01-10T00:08:32;94990.63;;;-6.39;74.53
84714;BME280;74938;42.658;23.248;2024-01-10T00:10:57;94985.53;;;-6.37;74.47
84714;BME280;74938;42.658;23.248;2024-01-10T00:13:22;94990.41;;;-6.34;73.97
84714;BME280;74938;42.658;23.248;2024-01-10T00:15:48;94979.13;;;-6.43;73.69
84714;BME280;74938;42.658;23.248;2024-01-10T00:18:14;94992.13;;;-6.35;74.52
84714;BME280;74938;42.658;23.248;2024-01-10T00:20:39;94988.84;;;-6.37;75.07
84714;BME280;74938;42.658;23.248;2024-01-10T00:23:05;94997.16;;;-6.35;74.16
84714;BME280;74938;42.658;23.248;2024-01-10T00:25:32;94996.53;;;-6.40;75.90
84714;BME280;74938;42.658;23.248;2024-01-10T00:27:57;94982.19;;;-6.38;74.44
84714;BME280;74938;42.658;23.248;2024-01-10T00:30:23;94993.16;;;-6.39;73.85
84714;BME280;74938;42.658;23.248;2024-01-10T00:32:48;94998.34;;;-6.42;73.93
84714;BME280;74938;42.658;23.248;2024-01-10T00:35:13;95005.88;;;-6.42;75.13
84714;BME280;74938;42.658;23.248;2024-01-10T00:37:39;95002.56;;;-6.42;74.08
84714;BME280;74938;42.658;23.248;2024-01-10T00:40:05;95002.56;;;-6.25;73.57
84714;BME280;74938;42.658;23.248;2024-01-10T00:42:30;94989.53;;;-6.33;74.02
84714;BME280;74938;42.658;23.248;2024-01-10T00:44:56;94986.13;;;-6.32;72.96
84714;BME280;74938;42.658;23.248;2024-01-10T00:47:21;95002.84;;;-6.48;73.99
84714;BME280;74938;42.658;23.248;2024-01-10T00:49:47;95001.81;;;-6.44;73.42
84714;BME280;74938;42.658;23.248;2024-01-10T00:52:12;94996.34;;;-6.35;74.31
84714;BME280;74938;42.658;23.248;2024-01-10T00:54:37;94993.31;;;-6.42;74.86
84714;BME280;74938;42.658;23.248;2024-01-10T00:57:03;95001.75;;;-6.25;73.38
84714;BME280;74938;42.658;23.248;2024-01-10T00:59:28;95007.13;;;-6.16;73.05
84714;BME280;74938;42.658;23.248;2024-01-10T01:01:54;95001.44;;;-6.19;72.89
84714;BME280;74938;42.658;23.248;2024-01-10T01:04:19;95001.16;;;-6.13;72.84
84714;BME280;74938;42.658;23.248;2024-01-10T01:06:45;94993.81;;;-6.18;73.58
84714;BME280;74938;42.658;23.248;2024-01-10T01:09:10;94998.22;;;-6.06;72.30
84714;BME280;74938;42.658;23.248;2024-01-10T01:11:37;94998.47;;;-6.10;72.63
84714;BME280;74938;42.658;23.248;2024-01-10T01:14:02;94990.19;;;-6.12;73.25
84714;BME280;74938;42.658;23.248;2024-01-10T01:16:28;95000.19;;;-6.11;73.70
84714;BME280;74938;42.658;23.248;2024-01-10T01:18:53;94989.72;;;-6.03;73.48
84714;BME280;74938;42.658;23.248;2024-01-10T01:21:19;94991.75;;;-6.10;73.26
84714;BME280;74938;42.658;23.248;2024-01-10T01:23:44;94991.06;;;-5.80;74.12
84714;BME280;74938;42.658;23.248;2024-01-10T01:26:09;94982.13;;;-5.53;72.56
84714;BME280;74938;42.658;23.248;2024-01-10T01:28:35;94990.09;;;-5.45;70.85
84714;BME280;74938;42.658;23.248;2024-01-10T01:31:00;94986.81;;;-5.63;71.79
84714;BME280;74938;42.658;23.248;2024-01-10T01:33:25;94988.78;;;-5.52;72.68
84714;BME280;74938;42.658;23.248;2024-01-10T01:35:51;94985.16;;;-5.31;71.58
84714;BME280;74938;42.658;23.248;2024-01-10T01:38:18;94985.00;;;-5.12;71.00
84714;BME280;74938;42.658;23.248;2024-01-10T01:40:43;94980.13;;;-5.15;71.45
84714;BME280;74938;42.658;23.248;2024-01-10T01:43:22;94981.50;;;-5.25;71.82
84714;BME280;74938;42.658;23.248;2024-01-10T01:45:52;94987.38;;;-5.24;71.26
84714;BME280;74938;42.658;23.248;2024-01-10T01:48:19;94983.94;;;-5.39;71.72
84714;BME280;74938;42.658;23.248;2024-01-10T01:50:45;94976.63;;;-5.28;71.67
84714;BME280;74938;42.658;23.248;2024-01-10T01:53:15;94982.00;;;-5.18;71.17
84714;BME280;74938;42.658;23.248;2024-01-10T01:55:44;94975.00;;;-5.29;71.22
84714;BME280;74938;42.658;23.248;2024-01-10T01:58:10;94971.88;;;-5.50;71.61
84714;BME280;74938;42.658;23.248;2024-01-10T02:00:37;94969.53;;;-5.86;73.49
84714;BME280;74938;42.658;23.248;2024-01-10T02:03:04;94965.69;;;-5.91;73.26
84714;BME280;74938;42.658;23.248;2024-01-10T02:05:30;94957.47;;;-5.95;73.66
84714;BME280;74938;42.658;23.248;2024-01-10T02:07:55;94956.78;;;-5.34;72.38
84714;BME280;74938;42.658;23.248;2024-01-10T02:10:21;94957.69;;;-5.35;71.85
84714;BME280;74938;42.658;23.248;2024-01-10T02:12:47;94952.66;;;-5.35;71.92
84714;BME280;74938;42.658;23.248;2024-01-10T02:15:13;94954.47;;;-5.37;71.58
84714;BME280;74938;42.658;23.248;2024-01-10T02:17:39;94958.38;;;-5.65;71.93
84714;BME280;74938;42.658;23.248;2024-01-10T02:20:12;94958.72;;;-5.88;73.27
84714;BME280;74938;42.658;23.248;2024-01-10T02:22:39;94967.41;;;-5.61;73.81
84714;BME280;74938;42.658;23.248;2024-01-10T02:25:08;94955.00;;;-5.48;71.97
84714;BME280;74938;42.658;23.248;2024-01-10T02:27:35;94944.69;;;-5.43;71.26
84714;BME280;74938;42.658;23.248;2024-01-10T02:30:02;94955.22;;;-5.68;71.86
84714;BME280;74938;42.658;23.248;2024-01-10T02:32:28;94952.63;;;-5.67;72.04
84714;BME280;74938;42.658;23.248;2024-01-10T02:34:54;94957.34;;;-5.61;73.04
84714;BME280;74938;42.658;23.248;2024-01-10T02:37:19;94959.28;;;-5.66;72.66
84714;BME280;74938;42.658;23.248;2024-01-10T02:39:45;94951.72;;;-5.66;71.29
84714;BME280;74938;42.658;23.248;2024-01-10T02:42:11;94960.25;;;-5.52;70.78
84714;BME280;74938;42.658;23.248;2024-01-10T02:44:36;94960.59;;;-5.58;70.09
84714;BME280;74938;42.658;23.248;2024-01-10T02:47:02;94961.16;;;-5.53;71.33
84714;BME280;74938;42.658;23.248;2024-01-10T02:49:27;94960.19;;;-5.51;71.62
84714;BME280;74938;42.658;23.248;2024-01-10T02:51:52;94962.72;;;-5.51;71.47
84714;BME280;74938;42.658;23.248;2024-01-10T02:54:18;94958.09;;;-5.58;71.21
84714;BME280;74938;42.658;23.248;2024-01-10T02:56:43;94958.88;;;-5.74;72.46
84714;BME280;74938;42.658;23.248;2024-01-10T02:59:08;94960.78;;;-5.94;72.87
84714;BME280;74938;42.658;23.248;2024-01-10T03:01:34;94936.63;;;-5.66;70.90
84714;BME280;74938;42.658;23.248;2024-01-10T03:03:59;94958.91;;;-5.58;70.90
84714;BME280;74938;42.658;23.248;2024-01-10T03:06:24;94954.16;;;-6.13;73.22
84714;BME280;74938;42.658;23.248;2024-01-10T03:08:51;94960.72;;;-5.77;72.86
84714;BME280;74938;42.658;23.248;2024-01-10T03:11:16;94958.53;;;-5.68;70.74
84714;BME280;74938;42.658;23.248;2024-01-10T03:13:43;94946.16;;;-5.55;70.70
84714;BME280;74938;42.658;23.248;2024-01-10T03:16:10;94965.72;;;-5.44;70.68
84714;BME280;74938;42.658;23.248;2024-01-10T03:18:36;94958.63;;;-5.53;70.25
84714;BME280;74938;42.658;23.248;2024-01-10T03:21:01;94966.38;;;-5.41;71.20
84714;BME280;74938;42.658;23.248;2024-01-10T03:23:27;94957.28;;;-5.43;70.93
84714;BME280;74938;42.658;23.248;2024-01-10T03:25:52;94962.72;;;-5.35;70.48
84714;BME280;74938;42.658;23.248;2024-01-10T03:28:18;94958.75;;;-5.39;70.64
84714;BME280;74938;42.658;23.248;2024-01-10T03:30:44;94963.72;;;-5.38;70.67
84714;BME280;74938;42.658;23.248;2024-01-10T03:33:09;94969.25;;;-5.80;72.27
84714;BME280;74938;42.658;23.248;2024-01-10T03:35:35;94970.19;;;-5.98;73.39
84714;BME280;74938;42.658;23.248;2024-01-10T03:38:00;94970.97;;;-6.13;75.38
84714;BME280;74938;42.658;23.248;2024-01-10T03:40:26;94969.25;;;-5.80;72.83
84714;BME280;74938;42.658;23.248;2024-01-10T03:42:51;94972.44;;;-6.09;74.49
84714;BME280;74938;42.658;23.248;2024-01-10T03:45:17;94970.44;;;-6.20;75.15
84714;BME280;74938;42.658;23.248;2024-01-10T03:47:46;94966.38;;;-6.22;75.72
84714;BME280;74938;42.658;23.248;2024-01-10T03:50:15;94980.56;;;-6.39;75.52
84714;BME280;74938;42.658;23.248;2024-01-10T03:52:42;94970.69;;;-6.24;75.43
84714;BME280;74938;42.658;23.248;2024-01-10T03:55:07;94981.09;;;-6.32;75.81
84714;BME280;74938;42.658;23.248;2024-01-10T03:57:34;94981.47;;;-6.40;75.35
84714;BME280;74938;42.658;23.248;2024-01-10T03:59:59;94976.00;;;-6.30;76.19
84714;BME280;74938;42.658;23.248;2024-01-10T04:02:26;94979.31;;;-6.30;75.39
84714;BME280;74938;42.658;23.248;2024-01-10T04:04:51;94977.59;;;-5.95;74.04
84714;BME280;74938;42.658;23.248;2024-01-10T04:07:16;94977.13;;;-5.70;72.76
84714;BME280;74938;42.658;23.248;2024-01-10T04:09:42;94970.91;;;-5.63;72.14
84714;BME280;74938;42.658;23.248;2024-01-10T04:12:07;94975.47;;;-5.87;72.60
84714;BME280;74938;42.658;23.248;2024-01-10T04:14:33;94977.72;;;-5.65;72.11
84714;BME280;74938;42.658;23.248;2024-01-10T04:16:58;94974.34;;;-5.97;71.98
84714;BME280;74938;42.658;23.248;2024-01-10T04:19:24;94970.09;;;-5.64;71.61
84714;BME280;74938;42.658;23.248;2024-01-10T04:21:49;94978.47;;;-5.96;71.78
84714;BME280;74938;42.658;23.248;2024-01-10T04:24:15;94979.38;;;-5.48;69.79
84714;BME280;74938;42.658;23.248;2024-01-10T04:26:40;94988.25;;;-5.74;70.36
84714;BME280;74938;42.658;23.248;2024-01-10T04:29:05;94989.44;;;-5.81;71.47
84714;BME280;74938;42.658;23.248;2024-01-10T04:31:31;94988.09;;;-5.38;69.39
84714;BME280;74938;42.658;23.248;2024-01-10T04:33:56;94990.13;;;-5.29;69.00
84714;BME280;74938;42.658;23.248;2024-01-10T04:36:22;94985.91;;;-5.29;68.34
84714;BME280;74938;42.658;23.248;2024-01-10T04:38:47;95003.06;;;-5.19;68.52
84714;BME280;74938;42.658;23.248;2024-01-10T04:41:13;94999.81;;;-5.21;68.57
84714;BME280;74938;42.658;23.248;2024-01-10T04:43:41;95009.16;;;-5.08;69.18
84714;BME280;74938;42.658;23.248;2024-01-10T04:46:06;95009.00;;;-5.05;66.85
84714;BME280;74938;42.658;23.248;2024-01-10T04:48:32;95011.69;;;-5.08;68.08
84714;BME280;74938;42.658;23.248;2024-01-10T04:50:57;95014.19;;;-5.08;67.39
84714;BME280;74938;42.658;23.248;2024-01-10T04:53:22;95006.72;;;-5.25;66.53
84714;BME280;74938;42.658;23.248;2024-01-10T04:55:48;95023.16;;;-5.02;67.25
84714;BME280;74938;42.658;23.248;2024-01-10T04:58:13;95019.97;;;-5.06;66.99
84714;BME280;74938;42.658;23.248;2024-01-10T05:00:38;95009.88;;;-5.06;66.55
84714;BME280;74938;42.658;23.248;2024-01-10T05:03:04;95021.75;;;-4.92;67.57
84714;BME280;74938;42.658;23.248;2024-01-10T05:05:29;95027.69;;;-5.09;68.38
84714;BME280;74938;42.658;23.248;2024-01-10T05:07:55;95025.50;;;-5.48;69.34
84714;BME280;74938;42.658;23.248;2024-01-10T05:10:20;95020.28;;;-5.61;71.76
84714;BME280;74938;42.658;23.248;2024-01-10T05:12:46;95029.75;;;-5.99;74.12
84714;BME280;74938;42.658;23.248;2024-01-10T05:15:11;95030.31;;;-5.76;74.10
84714;BME280;74938;42.658;23.248;2024-01-10T05:17:37;95033.69;;;-5.93;74.43
84714;BME280;74938;42.658;23.248;2024-01-10T05:20:02;95030.94;;;-6.06;75.43
84714;BME280;74938;42.658;23.248;2024-01-10T05:22:28;95023.91;;;-5.99;75.46
84714;BME280;74938;42.658;23.248;2024-01-10T05:24:53;95030.91;;;-5.38;72.98
84714;BME280;74938;42.658;23.248;2024-01-10T05:27:18;95020.84;;;-5.22;72.30
84714;BME280;74938;42.658;23.248;2024-01-10T05:29:44;95018.56;;;-5.27;70.37
84714;BME280;74938;42.658;23.248;2024-01-10T05:32:09;95032.66;;;-5.07;70.49
84714;BME280;74938;42.658;23.248;2024-01-10T05:34:34;95031.25;;;-5.13;68.61
84714;BME280;74938;42.658;23.248;2024-01-10T05:37:00;95035.97;;;-5.22;67.88
84714;BME280;74938;42.658;23.248;2024-01-10T05:39:25;95035.44;;;-5.45;69.89
84714;BME280;74938;42.658;23.248;2024-01-10T05:41:51;95034.88;;;-5.67;72.89
84714;BME280;74938;42.658;23.248;2024-01-10T05:44:16;95040.22;;;-5.89;73.64
84714;BME280;74938;42.658;23.248;2024-01-10T05:46:41;95041.25;;;-5.93;74.36
84714;BME280;74938;42.658;23.248;2024-01-10T05:49:08;95034.94;;;-5.69;73.30
84714;BME280;74938;42.658;23.248;2024-01-10T05:51:33;95042.38;;;-5.83;73.21
84714;BME280;74938;42.658;23.248;2024-01-10T05:53:59;95044.00;;;-5.82;73.46
84714;BME280;74938;42.658;23.248;2024-01-10T05:56:24;95046.56;;;-5.33;71.54
84714;BME280;74938;42.658;23.248;2024-01-10T05:58:49;95042.06;;;-5.11;69.14
84714;BME280;74938;42.658;23.248;2024-01-10T06:01:17;95048.63;;;-5.24;70.13
84714;BME280;74938;42.658;23.248;2024-01-10T06:03:42;95053.75;;;-5.58;72.15
84714;BME280;74938;42.658;23.248;2024-01-10T06:06:08;95052.06;;;-5.25;70.26
84714;BME280;74938;42.658;23.248;2024-01-10T06:08:34;95059.56;;;-5.08;69.59
84714;BME280;74938;42.658;23.248;2024-01-10T06:11:03;95049.50;;;-5.41;70.34
84714;BME280;74938;42.658;23.248;2024-01-10T06:13:28;95060.19;;;-5.20;71.05
84714;BME280;74938;42.658;23.248;2024-01-10T06:15:54;95060.44;;;-5.57;70.63
84714;BME280;74938;42.658;23.248;2024-01-10T06:18:19;95062.78;;;-5.21;69.89
84714;BME280;74938;42.658;23.248;2024-01-10T06:20:44;95060.28;;;-5.54;71.39
84714;BME280;74938;42.658;23.248;2024-01-10T06:23:10;95050.88;;;-5.35;68.47
84714;BME280;74938;42.658;23.248;2024-01-10T06:25:35;95073.78;;;-5.07;67.64
84714;BME280;74938;42.658;23.248;2024-01-10T06:28:00;95067.66;;;-5.18;68.69
84714;BME280;74938;42.658;23.248;2024-01-10T06:30:26;95066.63;;;-5.47;69.15
84714;BME280;74938;42.658;23.248;2024-01-10T06:32:51;95061.84;;;-5.03;68.52
84714;BME280;74938;42.658;23.248;2024-01-10T06:35:20;95074.09;;;-4.97;66.70
84714;BME280;74938;42.658;23.248;2024-01-10T06:37:46;95072.81;;;-5.04;66.69
84714;BME280;74938;42.658;23.248;2024-01-10T06:40:11;95074.28;;;-4.84;67.39
84714;BME280;74938;42.658;23.248;2024-01-10T06:42:37;95079.91;;;-4.79;66.03
84714;BME280;74938;42.658;23.248;2024-01-10T06:45:05;95085.91;;;-4.82;66.40
84714;BME280;74938;42.658;23.248;2024-01-10T06:47:32;95084.34;;;-4.84;66.02
84714;BME280;74938;42.658;23.248;2024-01-10T06:49:58;95081.69;;;-4.81;66.56
84714;BME280;74938;42.658;23.248;2024-01-10T06:52:24;95092.97;;;-5.04;66.64
84714;BME280;74938;42.658;23.248;2024-01-10T06:54:49;95078.66;;;-5.37;69.38
84714;BME280;74938;42.658;23.248;2024-01-10T06:57:15;95096.88;;;-5.32;69.22
84714;BME280;74938;42.658;23.248;2024-01-10T06:59:40;95091.75;;;-5.30;69.82
84714;BME280;74938;42.658;23.248;2024-01-10T07:02:05;95093.06;;;-5.39;69.47
84714;BME280;74938;42.658;23.248;2024-01-10T07:04:31;95103.53;;;-5.31;70.30
84714;BME280;74938;42.658;23.248;2024-01-10T07:06:57;95108.31;;;-5.09;69.79
84714;BME280;74938;42.658;23.248;2024-01-10T07:09:22;95099.59;;;-4.70;67.24
84714;BME280;74938;42.658;23.248;2024-01-10T07:11:48;95090.06;;;-4.81;66.51
84714;BME280;74938;42.658;23.248;2024-01-10T07:14:15;95097.06;;;-4.70;67.01
84714;BME280;74938;42.658;23.248;2024-01-10T07:16:41;95104.78;;;-4.42;65.47
84714;BME280;74938;42.658;23.248;2024-01-10T07:19:11;95109.50;;;-4.67;65.93
84714;BME280;74938;42.658;23.248;2024-01-10T07:21:42;95110.16;;;-4.79;65.93
84714;BME280;74938;42.658;23.248;2024-01-10T07:24:08;95114.19;;;-4.93;65.97
84714;BME280;74938;42.658;23.248;2024-01-10T07:26:35;95107.78;;;-4.82;65.67
84714;BME280;74938;42.658;23.248;2024-01-10T07:29:01;95113.56;;;-4.65;65.17
84714;BME280;74938;42.658;23.248;2024-01-10T07:31:31;95128.03;;;-4.84;61.98
84714;BME280;74938;42.658;23.248;2024-01-10T07:33:56;95115.13;;;-4.62;63.26
84714;BME280;74938;42.658;23.248;2024-01-10T07:36:25;95128.06;;;-4.52;63.23
84714;BME280;74938;42.658;23.248;2024-01-10T07:38:58;95130.50;;;-4.35;64.02
84714;BME280;74938;42.658;23.248;2024-01-10T07:41:23;95125.56;;;-3.91;58.67
84714;BME280;74938;42.658;23.248;2024-01-10T07:43:49;95128.00;;;-3.90;58.86
84714;BME280;74938;42.658;23.248;2024-01-10T07:46:15;95131.00;;;-3.53;56.67
84714;BME280;74938;42.658;23.248;2024-01-10T07:48:40;95125.50;;;-2.32;53.96
84714;BME280;74938;42.658;23.248;2024-01-10T07:51:06;95121.25;;;-1.13;49.99
84714;BME280;74938;42.658;23.248;2024-01-10T07:53:32;95119.78;;;0.07;44.82
84714;BME280;74938;42.658;23.248;2024-01-10T07:55:57;95117.00;;;-0.01;46.03
84714;BME280;74938;42.658;23.248;2024-01-10T07:58:23;95131.63;;;-0.05;44.82
84714;BME280;74938;42.658;23.248;2024-01-10T08:00:48;95124.03;;;-0.66;45.95
84714;BME280;74938;42.658;23.248;2024-01-10T08:03:13;95127.41;;;-1.17;44.56
84714;BME280;74938;42.658;23.248;2024-01-10T08:05:39;95127.34;;;-0.90;46.09
84714;BME280;74938;42.658;23.248;2024-01-10T08:08:05;95128.44;;;-0.94;45.32
84714;BME280;74938;42.658;23.248;2024-01-10T08:10:30;95124.50;;;1.17;40.73
84714;BME280;74938;42.658;23.248;2024-01-10T08:12:55;95126.31;;;2.98;35.88
84714;BME280;74938;42.658;23.248;2024-01-10T08:15:22;95121.44;;;4.65;33.17
84714;BME280;74938;42.658;23.248;2024-01-10T08:17:47;95126.00;;;5.74;32.37
84714;BME280;74938;42.658;23.248;2024-01-10T08:20:13;95128.81;;;6.08;30.16
84714;BME280;74938;42.658;23.248;2024-01-10T08:22:40;95116.63;;;5.92;30.61
84714;BME280;74938;42.658;23.248;2024-01-10T08:25:06;95132.03;;;6.91;29.60
84714;BME280;74938;42.658;23.248;2024-01-10T08:27:32;95125.41;;;7.06;28.84
84714;BME280;74938;42.658;23.248;2024-01-10T08:29:59;95121.13;;;5.81;30.69
84714;BME280;74938;42.658;23.248;2024-01-10T08:32:24;95122.28;;;3.87;33.05
84714;BME280;74938;42.658;23.248;2024-01-10T08:34:49;95135.88;;;2.75;37.12
84714;BME280;74938;42.658;23.248;2024-01-10T08:37:15;95141.28;;;1.64;40.52
84714;BME280;74938;42.658;23.248;2024-01-10T08:39:43;95132.81;;;1.63;41.03
84714;BME280;74938;42.658;23.248;2024-01-10T08:42:09;95142.09;;;1.42;41.96
84714;BME280;74938;42.658;23.248;2024-01-10T08:44:35;95149.53;;;0.88;44.10
84714;BME280;74938;42.658;23.248;2024-01-10T08:47:00;95135.06;;;0.42;44.42
84714;BME280;74938;42.658;23.248;2024-01-10T08:49:26;95144.41;;;-0.30;46.01
84714;BME280;74938;42.658;23.248;2024-01-10T08:51:51;95143.34;;;-0.64;48.55
84714;BME280;74938;42.658;23.248;2024-01-10T08:54:18;95142.53;;;-1.28;50.15
84714;BME280;74938;42.658;23.248;2024-01-10T08:56:45;95140.03;;;-1.55;50.40
84714;BME280;74938;42.658;23.248;2024-01-10T08:59:14;95129.91;;;-1.55;51.21
84714;BME280;74938;42.658;23.248;2024-01-10T09:01:39;95140.22;;;-1.70;52.96
84714;BME280;74938;42.658;23.248;2024-01-10T09:04:05;95134.31;;;-1.71;51.88
84714;BME280;74938;42.658;23.248;2024-01-10T09:06:32;95130.34;;;-1.48;51.31
84714;BME280;74938;42.658;23.248;2024-01-10T09:08:57;95136.28;;;-1.62;51.92
84714;BME280;74938;42.658;23.248;2024-01-10T09:11:23;95121.91;;;-1.88;53.81
84714;BME280;74938;42.658;23.248;2024-01-10T09:13:49;95138.00;;;-1.75;54.36
84714;BME280;74938;42.658;23.248;2024-01-10T09:16:16;95133.59;;;-1.73;54.12
84714;BME280;74938;42.658;23.248;2024-01-10T09:18:42;95127.94;;;-1.24;52.53
84714;BME280;74938;42.658;23.248;2024-01-10T09:21:07;95131.28;;;-1.11;52.09
84714;BME280;74938;42.658;23.248;2024-01-10T09:23:33;95133.28;;;-1.81;53.69
84714;BME280;74938;42.658;23.248;2024-01-10T09:25:58;95132.84;;;-1.61;52.95
84714;BME280;74938;42.658;23.248;2024-01-10T09:28:23;95132.38;;;-2.07;54.16
84714;BME280;74938;42.658;23.248;2024-01-10T09:30:49;95126.34;;;-1.65;54.65
84714;BME280;74938;42.658;23.248;2024-01-10T09:33:14;95125.38;;;-1.37;53.29
84714;BME280;74938;42.658;23.248;2024-01-10T09:35:40;95122.66;;;-0.96;53.74
84714;BME280;74938;42.658;23.248;2024-01-10T09:38:05;95121.84;;;-1.09;52.09
84714;BME280;74938;42.658;23.248;2024-01-10T09:40:31;95114.53;;;-1.01;52.85
84714;BME280;74938;42.658;23.248;2024-01-10T09:42:56;95115.41;;;-1.53;54.92
84714;BME280;74938;42.658;23.248;2024-01-10T09:45:23;95119.47;;;-1.37;54.01
84714;BME280;74938;42.658;23.248;2024-01-10T09:47:56;95125.88;;;-1.57;53.91
84714;BME280;74938;42.658;23.248;2024-01-10T09:50:22;95122.25;;;-0.90;52.79
84714;BME280;74938;42.658;23.248;2024-01-10T09:52:52;95126.00;;;-0.83;53.91
84714;BME280;74938;42.658;23.248;2024-01-10T09:55:21;95119.41;;;-0.98;52.20
84714;BME280;74938;42.658;23.248;2024-01-10T09:57:47;95112.09;;;-1.15;51.11
84714;BME280;74938;42.658;23.248;2024-01-10T10:00:15;95119.41;;;-1.11;52.10
84714;BME280;74938;42.658;23.248;2024-01-10T10:02:41;95112.31;;;-1.18;51.72
84714;BME280;74938;42.658;23.248;2024-01-10T10:05:17;95106.75;;;-1.23;52.26
84714;BME280;74938;42.658;23.248;2024-01-10T10:07:46;95109.88;;;-1.32;52.31
84714;BME280;74938;42.658;23.248;2024-01-10T10:10:12;95098.41;;;-0.87;51.92
84714;BME280;74938;42.658;23.248;2024-01-10T10:12:52;95093.34;;;-1.13;52.59
84714;BME280;74938;42.658;23.248;2024-01-10T10:15:22;95088.94;;;-0.85;51.12
84714;BME280;74938;42.658;23.248;2024-01-10T10:17:50;95080.03;;;-0.78;51.66
84714;BME280;74938;42.658;23.248;2024-01-10T10:20:29;95076.63;;;-1.41;52.89
84714;BME280;74938;42.658;23.248;2024-01-10T10:23:08;95073.38;;;-1.43;54.06
84714;BME280;74938;42.658;23.248;2024-01-10T10:25:46;95067.97;;;-1.13;51.45
84714;BME280;74938;42.658;23.248;2024-01-10T10:28:12;95056.41;;;-1.17;52.60
84714;BME280;74938;42.658;23.248;2024-01-10T10:30:38;95058.56;;;-1.11;52.27
84714;BME280;74938;42.658;23.248;2024-01-10T10:33:04;95055.50;;;-1.28;53.56
84714;BME280;74938;42.658;23.248;2024-01-10T10:35:29;95060.69;;;-1.30;53.21
84714;BME280;74938;42.658;23.248;2024-01-10T10:37:55;95051.66;;;-1.47;53.03
84714;BME280;74938;42.658;23.248;2024-01-10T10:40:22;95051.25;;;-1.41;53.67
84714;BME280;74938;42.658;23.248;2024-01-10T10:42:49;95043.34;;;-1.74;55.32
84714;BME280;74938;42.658;23.248;2024-01-10T10:45:18;95042.41;;;-1.10;53.44
84714;BME280;74938;42.658;23.248;2024-01-10T10:47:45;95040.59;;;-1.08;54.55
84714;BME280;74938;42.658;23.248;2024-01-10T10:50:21;95033.28;;;-1.12;53.56
84714;BME280;74938;42.658;23.248;2024-01-10T10:52:48;95024.56;;;-1.33;53.79
84714;BME280;74938;42.658;23.248;2024-01-10T10:55:18;95024.69;;;-1.22;53.02
84714;BME280;74938;42.658;23.248;2024-01-10T10:57:48;95027.41;;;-1.13;54.81
84714;BME280;74938;42.658;23.248;2024-01-10T11:00:19;95024.25;;;-1.16;52.38
84714;BME280;74938;42.658;23.248;2024-01-10T11:02:45;95023.34;;;-1.15;52.88
84714;BME280;74938;42.658;23.248;2024-01-10T11:05:11;95024.88;;;-1.13;54.61
84714;BME280;74938;42.658;23.248;2024-01-10T11:07:38;95011.50;;;-1.27;54.57
84714;BME280;74938;42.658;23.248;2024-01-10T11:10:08;95015.09;;;-0.93;53.75
84714;BME280;74938;42.658;23.248;2024-01-10T11:25:57;95001.63;;;-1.07;52.61
84714;BME280;74938;42.658;23.248;2024-01-10T11:28:25;95000.34;;;-0.52;52.62
84714;BME280;74938;42.658;23.248;2024-01-10T11:30:52;94998.06;;;-0.67;51.35
84714;BME280;74938;42.658;23.248;2024-01-10T11:33:22;94994.03;;;-0.83;52.03
84714;BME280;74938;42.658;23.248;2024-01-10T11:39:05;94985.00;;;-0.74;52.94
84714;BME280;74938;42.658;23.248;2024-01-10T11:41:35;94983.81;;;-0.57;51.61
84714;BME280;74938;42.658;23.248;2024-01-10T11:46:40;94975.44;;;-0.47;51.48
84714;BME280;74938;42.658;23.248;2024-01-10T11:49:12;94970.31;;;-0.58;51.21
84714;BME280;74938;42.658;23.248;2024-01-10T11:51:54;94964.84;;;-0.64;51.38
84714;BME280;74938;42.658;23.248;2024-01-10T11:57:25;94959.66;;;-0.63;51.92
84714;BME280;74938;42.658;23.248;2024-01-10T11:59:55;94960.00;;;-0.09;50.91
84714;BME280;74938;42.658;23.248;2024-01-10T12:02:22;94954.50;;;-0.61;54.15
84714;BME280;74938;42.658;23.248;2024-01-10T12:04:50;94963.06;;;-0.27;52.94
84714;BME280;74938;42.658;23.248;2024-01-10T12:07:17;94963.06;;;-0.27;53.64
84714;BME280;74938;42.658;23.248;2024-01-10T12:09:43;94953.63;;;-0.14;52.66
84714;BME280;74938;42.658;23.248;2024-01-10T12:12:08;94956.31;;;-0.05;52.84
84714;BME280;74938;42.658;23.248;2024-01-10T12:14:36;94953.19;;;0.03;52.10
84714;BME280;74938;42.658;23.248;2024-01-10T12:17:02;94949.63;;;0.06;52.01
84714;BME280;74938;42.658;23.248;2024-01-10T12:19:29;94937.66;;;0.30;50.36
84714;BME280;74938;42.658;23.248;2024-01-10T12:21:55;94934.47;;;-0.07;52.69
84714;BME280;74938;42.658;23.248;2024-01-10T12:24:20;94943.72;;;-0.06;53.60
84714;BME280;74938;42.658;23.248;2024-01-10T12:26:47;94937.13;;;-0.09;52.15
84714;BME280;74938;42.658;23.248;2024-01-10T12:29:17;94948.28;;;0.35;53.62
84714;BME280;74938;42.658;23.248;2024-01-10T12:31:42;94944.34;;;0.09;51.93
84714;BME280;74938;42.658;23.248;2024-01-10T12:34:11;94946.28;;;0.05;52.27
84714;BME280;74938;42.658;23.248;2024-01-10T12:36:36;94940.81;;;0.45;51.62
84714;BME280;74938;42.658;23.248;2024-01-10T12:39:02;94928.38;;;0.18;53.09
84714;BME280;74938;42.658;23.248;2024-01-10T12:41:28;94935.38;;;0.60;52.66
84714;BME280;74938;42.658;23.248;2024-01-10T12:43:54;94937.34;;;0.68;51.93
84714;BME280;74938;42.658;23.248;2024-01-10T12:46:23;94944.75;;;0.49;51.97
84714;BME280;74938;42.658;23.248;2024-01-10T12:49:06;94938.69;;;0.27;52.53
84714;BME280;74938;42.658;23.248;2024-01-10T12:51:33;94944.81;;;0.14;52.20
84714;BME280;74938;42.658;23.248;2024-01-10T12:53:59;94944.50;;;-0.17;53.31
84714;BME280;74938;42.658;23.248;2024-01-10T12:56:25;94934.09;;;-0.14;53.01
84714;BME280;74938;42.658;23.248;2024-01-10T12:58:51;94947.03;;;-0.17;53.92
84714;BME280;74938;42.658;23.248;2024-01-10T13:01:16;94950.44;;;-0.05;53.96
84714;BME280;74938;42.658;23.248;2024-01-10T13:03:42;94942.50;;;0.11;53.84
84714;BME280;74938;42.658;23.248;2024-01-10T13:06:08;94943.63;;;-0.05;52.19
84714;BME280;74938;42.658;23.248;2024-01-10T13:08:34;94954.22;;;0.00;53.09